sensor_id;sensor_type;location;lat;lon;timestamp;temperature;humidity
15394;DHT22;7795;47.986;11.868;2023-02-22T00:01:15;6.90;65.10
15394;DHT22;7795;47.986;11.868;2023-02-22T00:03:48;6.80;65.20
15394;DHT22;7795;47.986;11.868;2023-02-22T00:06:17;6.80;65.30
15394;DHT22;7795;47.986;11.868;2023-02-22T00:08:45;6.70;65.60
15394;DHT22;7795;47.986;11.868;2023-02-22T00:11:11;6.70;65.80
15394;DHT22;7795;47.986;11.868;2023-02-22T00:13:40;6.70;65.90
15394;DHT22;7795;47.986;11.868;2023-02-22T00:16:13;6.70;66.10
15394;DHT22;7795;47.986;11.868;2023-02-22T00:18:39;6.60;66.20
15394;DHT22;7795;47.986;11.868;2023-02-22T00:21:05;6.60;66.20
15394;DHT22;7795;47.986;11.868;2023-02-22T00:23:36;6.60;67.20
15394;DHT22;7795;47.986;11.868;2023-02-22T00:26:05;6.50;66.50
15394;DHT22;7795;47.986;11.868;2023-02-22T00:28:31;6.50;66.60
15394;DHT22;7795;47.986;11.868;2023-02-22T00:30:58;6.50;66.80
15394;DHT22;7795;47.986;11.868;2023-02-22T00:33:24;6.50;66.90
15394;DHT22;7795;47.986;11.868;2023-02-22T00:35:50;6.50;66.90
15394;DHT22;7795;47.986;11.868;2023-02-22T00:38:17;6.50;67.00
15394;DHT22;7795;47.986;11.868;2023-02-22T00:40:43;6.50;67.20
15394;DHT22;7795;47.986;11.868;2023-02-22T00:43:09;6.50;67.10
15394;DHT22;7795;47.986;11.868;2023-02-22T00:45:36;6.50;67.10
15394;DHT22;7795;47.986;11.868;2023-02-22T00:48:05;6.50;67.20
15394;DHT22;7795;47.986;11.868;2023-02-22T00:50:32;6.50;67.20
15394;DHT22;7795;47.986;11.868;2023-02-22T00:52:59;6.50;67.10
15394;DHT22;7795;47.986;11.868;2023-02-22T00:55:27;6.50;67.20
15394;DHT22;7795;47.986;11.868;2023-02-22T00:57:54;6.50;67.30
15394;DHT22;7795;47.986;11.868;2023-02-22T01:00:24;6.50;67.20
15394;DHT22;7795;47.986;11.868;2023-02-22T01:02:50;6.50;67.20
15394;DHT22;7795;47.986;11.868;2023-02-22T01:05:21;6.50;67.20
15394;DHT22;7795;47.986;11.868;2023-02-22T01:07:47;6.50;67.40
15394;DHT22;7795;47.986;11.868;2023-02-22T01:10:15;6.50;67.20
15394;DHT22;7795;47.986;11.868;2023-02-22T01:12:41;6.40;67.20
15394;DHT22;7795;47.986;11.868;2023-02-22T01:15:09;6.50;67.10
15394;DHT22;7795;47.986;11.868;2023-02-22T01:17:35;6.40;67.20
15394;DHT22;7795;47.986;11.868;2023-02-22T01:20:02;6.40;67.20
15394;DHT22;7795;47.986;11.868;2023-02-22T01:22:30;6.40;67.20
15394;DHT22;7795;47.986;11.868;2023-02-22T01:24:56;6.30;67.10
15394;DHT22;7795;47.986;11.868;2023-02-22T01:27:22;6.30;66.90
15394;DHT22;7795;47.986;11.868;2023-02-22T01:29:47;6.20;67.00
15394;DHT22;7795;47.986;11.868;2023-02-22T01:32:14;6.20;67.10
15394;DHT22;7795;47.986;11.868;2023-02-22T01:34:40;6.10;67.10
15394;DHT22;7795;47.986;11.868;2023-02-22T01:37:07;6.10;67.20
15394;DHT22;7795;47.986;11.868;2023-02-22T01:39:34;6.00;67.10
15394;DHT22;7795;47.986;11.868;2023-02-22T01:42:00;6.00;67.30
15394;DHT22;7795;47.986;11.868;2023-02-22T01:44:28;5.90;67.30
15394;DHT22;7795;47.986;11.868;2023-02-22T01:46:56;5.90;67.40
15394;DHT22;7795;47.986;11.868;2023-02-22T01:49:24;5.90;67.40
15394;DHT22;7795;47.986;11.868;2023-02-22T01:51:53;5.90;67.70
15394;DHT22;7795;47.986;11.868;2023-02-22T01:54:24;5.90;67.90
15394;DHT22;7795;47.986;11.868;2023-02-22T01:56:57;5.80;68.00
15394;DHT22;7795;47.986;11.868;2023-02-22T01:59:26;5.80;68.20
15394;DHT22;7795;47.986;11.868;2023-02-22T02:01:54;5.80;68.10
15394;DHT22;7795;47.986;11.868;2023-02-22T02:04:21;5.80;68.00
15394;DHT22;7795;47.986;11.868;2023-02-22T02:06:50;5.80;68.20
15394;DHT22;7795;47.986;11.868;2023-02-22T02:09:20;5.80;68.20
15394;DHT22;7795;47.986;11.868;2023-02-22T02:11:48;5.80;68.30
15394;DHT22;7795;47.986;11.868;2023-02-22T02:14:15;5.80;68.30
15394;DHT22;7795;47.986;11.868;2023-02-22T02:16:48;5.80;68.30
15394;DHT22;7795;47.986;11.868;2023-02-22T02:19:25;5.80;68.50
15394;DHT22;7795;47.986;11.868;2023-02-22T02:22:15;5.80;68.40
15394;DHT22;7795;47.986;11.868;2023-02-22T02:25:09;5.80;68.70
15394;DHT22;7795;47.986;11.868;2023-02-22T02:27:59;5.80;68.60
15394;DHT22;7795;47.986;11.868;2023-02-22T02:30:55;5.70;68.40
15394;DHT22;7795;47.986;11.868;2023-02-22T02:33:28;5.70;69.40
15394;DHT22;7795;47.986;11.868;2023-02-22T02:36:01;5.70;68.20
15394;DHT22;7795;47.986;11.868;2023-02-22T02:38:32;5.70;68.30
15394;DHT22;7795;47.986;11.868;2023-02-22T02:41:04;5.60;68.30
15394;DHT22;7795;47.986;11.868;2023-02-22T02:43:33;5.60;68.50
15394;DHT22;7795;47.986;11.868;2023-02-22T02:46:05;5.60;68.40
15394;DHT22;7795;47.986;11.868;2023-02-22T02:48:34;5.60;68.40
15394;DHT22;7795;47.986;11.868;2023-02-22T02:51:04;5.60;68.40
15394;DHT22;7795;47.986;11.868;2023-02-22T02:53:34;5.50;68.40
15394;DHT22;7795;47.986;11.868;2023-02-22T02:56:01;5.50;68.50
15394;DHT22;7795;47.986;11.868;2023-02-22T02:58:27;5.50;68.40
15394;DHT22;7795;47.986;11.868;2023-02-22T03:00:55;5.50;68.50
15394;DHT22;7795;47.986;11.868;2023-02-22T03:03:46;5.50;68.60
15394;DHT22;7795;47.986;11.868;2023-02-22T03:06:24;5.50;69.30
15394;DHT22;7795;47.986;11.868;2023-02-22T03:09:01;5.40;68.70
15394;DHT22;7795;47.986;11.868;2023-02-22T03:11:34;5.40;68.60
15394;DHT22;7795;47.986;11.868;2023-02-22T03:14:08;5.40;68.60
15394;DHT22;7795;47.986;11.868;2023-02-22T03:16:43;5.40;68.60
15394;DHT22;7795;47.986;11.868;2023-02-22T03:19:17;5.40;68.70
15394;DHT22;7795;47.986;11.868;2023-02-22T03:21:48;5.40;68.90
15394;DHT22;7795;47.986;11.868;2023-02-22T03:24:21;5.30;68.70
15394;DHT22;7795;47.986;11.868;2023-02-22T03:26:55;5.30;68.90
15394;DHT22;7795;47.986;11.868;2023-02-22T03:29:23;5.30;69.00
15394;DHT22;7795;47.986;11.868;2023-02-22T03:31:53;5.30;69.00
15394;DHT22;7795;47.986;11.868;2023-02-22T03:34:26;5.30;69.20
15394;DHT22;7795;47.986;11.868;2023-02-22T03:36:56;5.30;69.30
15394;DHT22;7795;47.986;11.868;2023-02-22T03:39:25;5.30;69.30
15394;DHT22;7795;47.986;11.868;2023-02-22T03:41:57;5.30;69.30
15394;DHT22;7795;47.986;11.868;2023-02-22T03:44:26;5.30;69.20
15394;DHT22;7795;47.986;11.868;2023-02-22T03:46:55;5.30;69.20
15394;DHT22;7795;47.986;11.868;2023-02-22T03:49:31;5.30;69.30
15394;DHT22;7795;47.986;11.868;2023-02-22T03:51:58;5.20;69.40
15394;DHT22;7795;47.986;11.868;2023-02-22T03:54:25;5.20;69.20
15394;DHT22;7795;47.986;11.868;2023-02-22T03:56:53;5.20;69.20
15394;DHT22;7795;47.986;11.868;2023-02-22T03:59:20;5.20;69.20
15394;DHT22;7795;47.986;11.868;2023-02-22T04:01:51;5.20;69.30
15394;DHT22;7795;47.986;11.868;2023-02-22T04:04:17;5.20;69.40
15394;DHT22;7795;47.986;11.868;2023-02-22T04:06:44;5.20;69.40
15394;DHT22;7795;47.986;11.868;2023-02-22T04:09:10;5.20;70.30
15394;DHT22;7795;47.986;11.868;2023-02-22T04:11:35;5.20;69.40
15394;DHT22;7795;47.986;11.868;2023-02-22T04:14:01;5.20;69.60
15394;DHT22;7795;47.986;11.868;2023-02-22T04:16:27;5.20;69.60
15394;DHT22;7795;47.986;11.868;2023-02-22T04:18:52;5.20;69.70
15394;DHT22;7795;47.986;11.868;2023-02-22T04:21:18;5.20;69.70
15394;DHT22;7795;47.986;11.868;2023-02-22T04:23:45;5.20;69.70
15394;DHT22;7795;47.986;11.868;2023-02-22T04:26:11;5.20;69.80
15394;DHT22;7795;47.986;11.868;2023-02-22T04:28:37;5.20;69.60
15394;DHT22;7795;47.986;11.868;2023-02-22T04:31:03;5.20;69.40
15394;DHT22;7795;47.986;11.868;2023-02-22T04:33:28;5.20;69.30
15394;DHT22;7795;47.986;11.868;2023-02-22T04:35:54;5.10;69.20
15394;DHT22;7795;47.986;11.868;2023-02-22T04:38:22;5.00;69.20
15394;DHT22;7795;47.986;11.868;2023-02-22T04:40:52;5.00;69.30
15394;DHT22;7795;47.986;11.868;2023-02-22T04:43:18;5.00;69.60
15394;DHT22;7795;47.986;11.868;2023-02-22T04:45:44;5.00;69.60
15394;DHT22;7795;47.986;11.868;2023-02-22T04:48:09;5.00;70.50
15394;DHT22;7795;47.986;11.868;2023-02-22T04:50:35;5.00;69.90
15394;DHT22;7795;47.986;11.868;2023-02-22T04:53:01;4.90;70.00
15394;DHT22;7795;47.986;11.868;2023-02-22T04:55:27;4.90;70.00
15394;DHT22;7795;47.986;11.868;2023-02-22T04:57:54;5.00;70.20
15394;DHT22;7795;47.986;11.868;2023-02-22T05:00:21;4.90;70.30
15394;DHT22;7795;47.986;11.868;2023-02-22T05:02:47;5.00;70.30
15394;DHT22;7795;47.986;11.868;2023-02-22T05:05:13;5.00;70.30
15394;DHT22;7795;47.986;11.868;2023-02-22T05:07:39;5.00;70.30
15394;DHT22;7795;47.986;11.868;2023-02-22T05:10:05;5.00;70.40
15394;DHT22;7795;47.986;11.868;2023-02-22T05:12:31;5.00;70.50
15394;DHT22;7795;47.986;11.868;2023-02-22T05:14:58;5.00;70.30
15394;DHT22;7795;47.986;11.868;2023-02-22T05:17:24;5.00;70.30
15394;DHT22;7795;47.986;11.868;2023-02-22T05:19:49;4.90;70.10
15394;DHT22;7795;47.986;11.868;2023-02-22T05:22:15;4.90;70.00
15394;DHT22;7795;47.986;11.868;2023-02-22T05:24:42;4.90;70.10
15394;DHT22;7795;47.986;11.868;2023-02-22T05:27:09;4.90;70.20
15394;DHT22;7795;47.986;11.868;2023-02-22T05:29:36;4.90;70.20
15394;DHT22;7795;47.986;11.868;2023-02-22T05:32:04;4.90;70.90
15394;DHT22;7795;47.986;11.868;2023-02-22T05:34:31;4.90;70.20
15394;DHT22;7795;47.986;11.868;2023-02-22T05:36:57;4.90;70.30
15394;DHT22;7795;47.986;11.868;2023-02-22T05:39:23;4.90;70.30
15394;DHT22;7795;47.986;11.868;2023-02-22T05:41:48;4.90;70.50
15394;DHT22;7795;47.986;11.868;2023-02-22T05:44:14;4.90;70.50
15394;DHT22;7795;47.986;11.868;2023-02-22T05:46:40;4.90;70.60
15394;DHT22;7795;47.986;11.868;2023-02-22T05:49:07;4.90;70.50
15394;DHT22;7795;47.986;11.868;2023-02-22T05:51:33;4.90;70.60
15394;DHT22;7795;47.986;11.868;2023-02-22T05:53:58;4.90;70.40
15394;DHT22;7795;47.986;11.868;2023-02-22T05:56:26;4.80;70.10
15394;DHT22;7795;47.986;11.868;2023-02-22T05:58:52;4.80;70.00
15394;DHT22;7795;47.986;11.868;2023-02-22T06:01:19;4.80;70.00
15394;DHT22;7795;47.986;11.868;2023-02-22T06:03:46;4.80;70.00
15394;DHT22;7795;47.986;11.868;2023-02-22T06:06:13;4.70;69.90
15394;DHT22;7795;47.986;11.868;2023-02-22T06:08:39;4.70;69.90
15394;DHT22;7795;47.986;11.868;2023-02-22T06:11:05;4.60;70.00
15394;DHT22;7795;47.986;11.868;2023-02-22T06:13:30;4.60;70.00
15394;DHT22;7795;47.986;11.868;2023-02-22T06:15:56;4.60;70.20
15394;DHT22;7795;47.986;11.868;2023-02-22T06:18:24;4.50;70.10
15394;DHT22;7795;47.986;11.868;2023-02-22T06:20:51;4.50;70.30
15394;DHT22;7795;47.986;11.868;2023-02-22T06:23:18;4.50;70.40
15394;DHT22;7795;47.986;11.868;2023-02-22T06:25:44;4.50;70.70
15394;DHT22;7795;47.986;11.868;2023-02-22T06:28:09;4.50;70.70
15394;DHT22;7795;47.986;11.868;2023-02-22T06:30:35;4.50;70.80
15394;DHT22;7795;47.986;11.868;2023-02-22T06:33:01;4.50;71.00
15394;DHT22;7795;47.986;11.868;2023-02-22T06:35:27;4.50;71.10
15394;DHT22;7795;47.986;11.868;2023-02-22T06:37:52;4.50;71.20
15394;DHT22;7795;47.986;11.868;2023-02-22T06:40:20;4.50;71.30
15394;DHT22;7795;47.986;11.868;2023-02-22T06:42:47;4.50;71.40
15394;DHT22;7795;47.986;11.868;2023-02-22T06:45:15;4.50;71.50
15394;DHT22;7795;47.986;11.868;2023-02-22T06:47:41;4.60;71.60
15394;DHT22;7795;47.986;11.868;2023-02-22T06:50:07;4.60;71.60
15394;DHT22;7795;47.986;11.868;2023-02-22T06:52:41;4.60;71.70
15394;DHT22;7795;47.986;11.868;2023-02-22T06:55:08;4.60;71.60
15394;DHT22;7795;47.986;11.868;2023-02-22T06:57:35;4.70;71.70
15394;DHT22;7795;47.986;11.868;2023-02-22T07:00:01;4.70;71.80
15394;DHT22;7795;47.986;11.868;2023-02-22T07:02:26;4.70;71.70
15394;DHT22;7795;47.986;11.868;2023-02-22T07:04:52;4.70;71.70
15394;DHT22;7795;47.986;11.868;2023-02-22T07:07:21;4.80;71.90
15394;DHT22;7795;47.986;11.868;2023-02-22T07:09:48;4.80;71.90
15394;DHT22;7795;47.986;11.868;2023-02-22T07:12:13;4.80;71.80
15394;DHT22;7795;47.986;11.868;2023-02-22T07:14:41;4.90;71.90
15394;DHT22;7795;47.986;11.868;2023-02-22T07:17:07;4.90;72.00
15394;DHT22;7795;47.986;11.868;2023-02-22T07:19:33;4.90;71.90
15394;DHT22;7795;47.986;11.868;2023-02-22T07:21:58;5.00;72.20
15394;DHT22;7795;47.986;11.868;2023-02-22T07:24:25;5.00;72.90
15394;DHT22;7795;47.986;11.868;2023-02-22T07:26:52;5.10;72.30
15394;DHT22;7795;47.986;11.868;2023-02-22T07:29:18;5.20;72.30
15394;DHT22;7795;47.986;11.868;2023-02-22T07:31:48;5.20;72.30
15394;DHT22;7795;47.986;11.868;2023-02-22T07:34:14;5.30;72.40
15394;DHT22;7795;47.986;11.868;2023-02-22T07:36:39;5.30;72.30
15394;DHT22;7795;47.986;11.868;2023-02-22T07:39:05;5.40;72.40
15394;DHT22;7795;47.986;11.868;2023-02-22T07:41:33;5.50;72.40
15394;DHT22;7795;47.986;11.868;2023-02-22T07:43:59;5.50;72.30
15394;DHT22;7795;47.986;11.868;2023-02-22T07:46:24;5.60;72.40
15394;DHT22;7795;47.986;11.868;2023-02-22T07:48:51;5.70;72.40
15394;DHT22;7795;47.986;11.868;2023-02-22T07:51:17;5.80;72.50
15394;DHT22;7795;47.986;11.868;2023-02-22T07:53:45;5.80;72.30
15394;DHT22;7795;47.986;11.868;2023-02-22T07:56:11;5.90;72.30
15394;DHT22;7795;47.986;11.868;2023-02-22T07:58:36;6.00;72.30
15394;DHT22;7795;47.986;11.868;2023-02-22T08:01:03;6.10;73.10
15394;DHT22;7795;47.986;11.868;2023-02-22T08:03:31;6.20;72.30
15394;DHT22;7795;47.986;11.868;2023-02-22T08:06:05;6.20;73.10
15394;DHT22;7795;47.986;11.868;2023-02-22T08:08:31;6.30;72.20
15394;DHT22;7795;47.986;11.868;2023-02-22T08:10:57;6.40;72.00
15394;DHT22;7795;47.986;11.868;2023-02-22T08:13:23;6.50;71.90
15394;DHT22;7795;47.986;11.868;2023-02-22T08:15:51;6.60;71.80
15394;DHT22;7795;47.986;11.868;2023-02-22T08:18:18;6.60;71.70
15394;DHT22;7795;47.986;11.868;2023-02-22T08:20:46;6.80;72.40
15394;DHT22;7795;47.986;11.868;2023-02-22T08:23:15;6.90;71.40
15394;DHT22;7795;47.986;11.868;2023-02-22T08:25:41;7.00;71.20
15394;DHT22;7795;47.986;11.868;2023-02-22T08:28:08;7.10;71.00
15394;DHT22;7795;47.986;11.868;2023-02-22T08:30:35;7.20;70.80
15394;DHT22;7795;47.986;11.868;2023-02-22T08:33:02;7.30;70.50
15394;DHT22;7795;47.986;11.868;2023-02-22T08:35:29;7.40;70.40
15394;DHT22;7795;47.986;11.868;2023-02-22T08:37:56;7.50;70.20
15394;DHT22;7795;47.986;11.868;2023-02-22T08:40:26;7.60;70.10
15394;DHT22;7795;47.986;11.868;2023-02-22T08:42:53;7.70;69.90
15394;DHT22;7795;47.986;11.868;2023-02-22T08:45:19;7.90;69.80
15394;DHT22;7795;47.986;11.868;2023-02-22T08:47:45;8.00;69.80
15394;DHT22;7795;47.986;11.868;2023-02-22T08:50:16;8.10;69.70
15394;DHT22;7795;47.986;11.868;2023-02-22T08:52:42;8.20;69.50
15394;DHT22;7795;47.986;11.868;2023-02-22T08:55:07;8.30;69.30
15394;DHT22;7795;47.986;11.868;2023-02-22T08:57:34;8.40;70.00
15394;DHT22;7795;47.986;11.868;2023-02-22T09:00:00;8.60;69.20
15394;DHT22;7795;47.986;11.868;2023-02-22T09:02:26;8.60;69.00
15394;DHT22;7795;47.986;11.868;2023-02-22T09:04:52;8.80;69.00
15394;DHT22;7795;47.986;11.868;2023-02-22T09:07:18;8.90;68.80
15394;DHT22;7795;47.986;11.868;2023-02-22T09:09:44;9.00;68.50
15394;DHT22;7795;47.986;11.868;2023-02-22T09:12:10;9.10;68.20
15394;DHT22;7795;47.986;11.868;2023-02-22T09:14:37;9.20;68.00
15394;DHT22;7795;47.986;11.868;2023-02-22T09:17:03;9.40;67.90
15394;DHT22;7795;47.986;11.868;2023-02-22T09:19:29;9.50;67.60
15394;DHT22;7795;47.986;11.868;2023-02-22T09:21:56;9.60;67.30
15394;DHT22;7795;47.986;11.868;2023-02-22T09:24:22;9.70;67.10
15394;DHT22;7795;47.986;11.868;2023-02-22T09:26:48;9.90;66.90
15394;DHT22;7795;47.986;11.868;2023-02-22T09:29:21;10.00;66.70
15394;DHT22;7795;47.986;11.868;2023-02-22T09:31:49;10.20;66.60
15394;DHT22;7795;47.986;11.868;2023-02-22T09:34:16;10.30;66.30
15394;DHT22;7795;47.986;11.868;2023-02-22T09:36:42;10.40;66.20
15394;DHT22;7795;47.986;11.868;2023-02-22T09:39:08;10.50;66.10
15394;DHT22;7795;47.986;11.868;2023-02-22T09:41:42;10.70;66.10
15394;DHT22;7795;47.986;11.868;2023-02-22T09:44:17;10.80;65.90
15394;DHT22;7795;47.986;11.868;2023-02-22T09:46:44;10.90;65.80
15394;DHT22;7795;47.986;11.868;2023-02-22T09:49:21;11.10;65.70
15394;DHT22;7795;47.986;11.868;2023-02-22T09:51:51;11.20;65.10
15394;DHT22;7795;47.986;11.868;2023-02-22T09:54:21;11.30;65.10
15394;DHT22;7795;47.986;11.868;2023-02-22T09:56:51;11.40;64.60
15394;DHT22;7795;47.986;11.868;2023-02-22T09:59:22;11.50;64.50
15394;DHT22;7795;47.986;11.868;2023-02-22T10:01:55;11.60;64.20
15394;DHT22;7795;47.986;11.868;2023-02-22T10:04:33;11.70;63.90
15394;DHT22;7795;47.986;11.868;2023-02-22T10:07:03;11.80;63.70
15394;DHT22;7795;47.986;11.868;2023-02-22T10:09:32;11.90;63.70
15394;DHT22;7795;47.986;11.868;2023-02-22T10:12:04;12.00;63.50
15394;DHT22;7795;47.986;11.868;2023-02-22T10:14:50;12.10;63.30
15394;DHT22;7795;47.986;11.868;2023-02-22T10:17:29;12.20;62.70
15394;DHT22;7795;47.986;11.868;2023-02-22T10:20:07;12.30;62.50
15394;DHT22;7795;47.986;11.868;2023-02-22T10:22:55;12.40;62.40
15394;DHT22;7795;47.986;11.868;2023-02-22T10:25:27;12.50;62.30
15394;DHT22;7795;47.986;11.868;2023-02-22T10:27:56;12.60;62.40
15394;DHT22;7795;47.986;11.868;2023-02-22T10:30:27;12.60;62.00
15394;DHT22;7795;47.986;11.868;2023-02-22T10:32:58;12.80;62.00
15394;DHT22;7795;47.986;11.868;2023-02-22T10:35:32;12.90;61.70
15394;DHT22;7795;47.986;11.868;2023-02-22T10:38:05;12.90;61.20
15394;DHT22;7795;47.986;11.868;2023-02-22T10:40:36;13.00;61.10
15394;DHT22;7795;47.986;11.868;2023-02-22T10:43:05;13.10;61.20
15394;DHT22;7795;47.986;11.868;2023-02-22T10:45:32;13.20;61.00
15394;DHT22;7795;47.986;11.868;2023-02-22T10:48:00;13.30;60.70
15394;DHT22;7795;47.986;11.868;2023-02-22T10:50:31;13.30;60.40
15394;DHT22;7795;47.986;11.868;2023-02-22T10:52:57;13.40;60.10
15394;DHT22;7795;47.986;11.868;2023-02-22T10:55:23;13.50;60.10
15394;DHT22;7795;47.986;11.868;2023-02-22T10:57:50;13.60;60.00
15394;DHT22;7795;47.986;11.868;2023-02-22T11:00:20;13.70;60.40
15394;DHT22;7795;47.986;11.868;2023-02-22T11:02:52;13.70;59.60
15394;DHT22;7795;47.986;11.868;2023-02-22T11:05:32;13.80;59.50
15394;DHT22;7795;47.986;11.868;2023-02-22T11:08:29;13.90;58.80
15394;DHT22;7795;47.986;11.868;2023-02-22T11:11:00;14.00;58.40
15394;DHT22;7795;47.986;11.868;2023-02-22T11:13:28;14.10;59.10
15394;DHT22;7795;47.986;11.868;2023-02-22T11:15:57;14.20;58.90
15394;DHT22;7795;47.986;11.868;2023-02-22T11:18:26;14.30;59.20
15394;DHT22;7795;47.986;11.868;2023-02-22T11:21:08;14.30;58.40
15394;DHT22;7795;47.986;11.868;2023-02-22T11:23:37;14.40;57.50
15394;DHT22;7795;47.986;11.868;2023-02-22T11:26:07;14.50;58.10
15394;DHT22;7795;47.986;11.868;2023-02-22T11:28:33;14.60;57.50
15394;DHT22;7795;47.986;11.868;2023-02-22T11:31:10;14.60;57.50
15394;DHT22;7795;47.986;11.868;2023-02-22T11:33:38;14.70;56.20
15394;DHT22;7795;47.986;11.868;2023-02-22T11:36:06;14.70;56.80
15394;DHT22;7795;47.986;11.868;2023-02-22T11:38:52;14.80;56.80
15394;DHT22;7795;47.986;11.868;2023-02-22T11:41:20;14.90;56.80
15394;DHT22;7795;47.986;11.868;2023-02-22T11:43:51;14.90;56.90
15394;DHT22;7795;47.986;11.868;2023-02-22T11:46:20;15.00;56.90
15394;DHT22;7795;47.986;11.868;2023-02-22T11:48:55;15.00;56.80
15394;DHT22;7795;47.986;11.868;2023-02-22T11:51:40;15.10;56.50
15394;DHT22;7795;47.986;11.868;2023-02-22T11:54:22;15.10;56.20
15394;DHT22;7795;47.986;11.868;2023-02-22T11:57:01;15.20;55.70
15394;DHT22;7795;47.986;11.868;2023-02-22T11:59:35;15.20;55.70
15394;DHT22;7795;47.986;11.868;2023-02-22T12:02:12;15.30;55.50
15394;DHT22;7795;47.986;11.868;2023-02-22T12:05:04;15.30;55.50
15394;DHT22;7795;47.986;11.868;2023-02-22T12:07:45;15.40;54.90
15394;DHT22;7795;47.986;11.868;2023-02-22T12:10:19;15.40;55.20
15394;DHT22;7795;47.986;11.868;2023-02-22T12:13:05;15.50;55.20
15394;DHT22;7795;47.986;11.868;2023-02-22T12:15:38;15.50;54.70
15394;DHT22;7795;47.986;11.868;2023-02-22T12:18:11;15.50;54.80
15394;DHT22;7795;47.986;11.868;2023-02-22T12:20:44;15.60;54.50
15394;DHT22;7795;47.986;11.868;2023-02-22T12:23:17;15.60;54.60
15394;DHT22;7795;47.986;11.868;2023-02-22T12:25:53;15.70;54.50
15394;DHT22;7795;47.986;11.868;2023-02-22T12:28:27;15.70;54.30
15394;DHT22;7795;47.986;11.868;2023-02-22T12:31:02;15.80;55.00
15394;DHT22;7795;47.986;11.868;2023-02-22T12:33:39;15.80;54.20
15394;DHT22;7795;47.986;11.868;2023-02-22T12:36:13;15.80;54.00
15394;DHT22;7795;47.986;11.868;2023-02-22T12:38:42;15.90;54.30
15394;DHT22;7795;47.986;11.868;2023-02-22T12:41:14;15.90;54.30
15394;DHT22;7795;47.986;11.868;2023-02-22T12:43:46;16.00;54.40
15394;DHT22;7795;47.986;11.868;2023-02-22T12:46:20;16.00;54.30
15394;DHT22;7795;47.986;11.868;2023-02-22T12:48:50;16.00;54.10
15394;DHT22;7795;47.986;11.868;2023-02-22T12:51:24;16.10;54.20
15394;DHT22;7795;47.986;11.868;2023-02-22T12:53:56;16.10;53.90
15394;DHT22;7795;47.986;11.868;2023-02-22T12:56:24;16.10;53.90
15394;DHT22;7795;47.986;11.868;2023-02-22T12:58:56;16.20;54.00
15394;DHT22;7795;47.986;11.868;2023-02-22T13:01:27;16.20;53.90
15394;DHT22;7795;47.986;11.868;2023-02-22T13:03:54;16.20;53.80
15394;DHT22;7795;47.986;11.868;2023-02-22T13:06:29;16.30;53.80
15394;DHT22;7795;47.986;11.868;2023-02-22T13:09:07;16.30;53.10
15394;DHT22;7795;47.986;11.868;2023-02-22T13:11:41;16.30;53.20
15394;DHT22;7795;47.986;11.868;2023-02-22T13:14:21;16.40;53.70
15394;DHT22;7795;47.986;11.868;2023-02-22T13:16:58;16.40;53.30
15394;DHT22;7795;47.986;11.868;2023-02-22T13:19:36;16.40;53.60
15394;DHT22;7795;47.986;11.868;2023-02-22T13:22:09;16.50;53.00
15394;DHT22;7795;47.986;11.868;2023-02-22T13:24:46;16.50;53.80
15394;DHT22;7795;47.986;11.868;2023-02-22T13:27:18;16.50;52.90
15394;DHT22;7795;47.986;11.868;2023-02-22T13:29:48;16.60;53.10
15394;DHT22;7795;47.986;11.868;2023-02-22T13:32:25;16.60;53.30
15394;DHT22;7795;47.986;11.868;2023-02-22T13:35:04;16.70;53.00
15394;DHT22;7795;47.986;11.868;2023-02-22T13:40:46;16.80;52.70
15394;DHT22;7795;47.986;11.868;2023-02-22T13:43:40;16.80;52.50
15394;DHT22;7795;47.986;11.868;2023-02-22T13:46:23;16.90;52.40
15394;DHT22;7795;47.986;11.868;2023-02-22T13:49:21;16.90;52.60
15394;DHT22;7795;47.986;11.868;2023-02-22T13:51:50;16.90;52.00
15394;DHT22;7795;47.986;11.868;2023-02-22T13:54:23;17.00;52.80
15394;DHT22;7795;47.986;11.868;2023-02-22T13:56:53;17.00;52.10
15394;DHT22;7795;47.986;11.868;2023-02-22T13:59:25;17.00;52.50
15394;DHT22;7795;47.986;11.868;2023-02-22T14:01:52;17.00;52.60
15394;DHT22;7795;47.986;11.868;2023-02-22T14:10:47;17.10;51.80
15394;DHT22;7795;47.986;11.868;2023-02-22T14:13:15;17.20;51.90
15394;DHT22;7795;47.986;11.868;2023-02-22T14:16:14;17.20;52.40
15394;DHT22;7795;47.986;11.868;2023-02-22T14:18:41;17.20;51.60
15394;DHT22;7795;47.986;11.868;2023-02-22T14:21:10;17.20;52.30
15394;DHT22;7795;47.986;11.868;2023-02-22T14:23:37;17.30;52.20
15394;DHT22;7795;47.986;11.868;2023-02-22T14:26:13;17.30;52.10
15394;DHT22;7795;47.986;11.868;2023-02-22T14:28:49;17.30;51.80
15394;DHT22;7795;47.986;11.868;2023-02-22T14:31:16;17.30;51.70
15394;DHT22;7795;47.986;11.868;2023-02-22T14:33:53;17.30;52.00
15394;DHT22;7795;47.986;11.868;2023-02-22T14:36:22;17.30;51.80
15394;DHT22;7795;47.986;11.868;2023-02-22T14:38:49;17.30;52.00
15394;DHT22;7795;47.986;11.868;2023-02-22T14:41:17;17.30;51.70
15394;DHT22;7795;47.986;11.868;2023-02-22T14:43:47;17.30;51.60
15394;DHT22;7795;47.986;11.868;2023-02-22T14:46:20;17.30;51.20
15394;DHT22;7795;47.986;11.868;2023-02-22T14:48:48;17.30;51.30
15394;DHT22;7795;47.986;11.868;2023-02-22T14:51:18;17.30;51.60
15394;DHT22;7795;47.986;11.868;2023-02-22T14:53:48;17.30;51.50
15394;DHT22;7795;47.986;11.868;2023-02-22T14:56:18;17.30;51.40
15394;DHT22;7795;47.986;11.868;2023-02-22T14:58:54;17.30;51.50
15394;DHT22;7795;47.986;11.868;2023-02-22T15:01:25;17.30;51.50
15394;DHT22;7795;47.986;11.868;2023-02-22T15:03:51;17.30;51.70
15394;DHT22;7795;47.986;11.868;2023-02-22T15:06:26;17.30;51.90
15394;DHT22;7795;47.986;11.868;2023-02-22T15:09:06;17.30;51.90
15394;DHT22;7795;47.986;11.868;2023-02-22T15:11:32;17.30;51.50
15394;DHT22;7795;47.986;11.868;2023-02-22T15:14:00;17.30;51.90
15394;DHT22;7795;47.986;11.868;2023-02-22T15:16:28;17.30;51.70
15394;DHT22;7795;47.986;11.868;2023-02-22T15:18:58;17.30;51.90
15394;DHT22;7795;47.986;11.868;2023-02-22T15:21:26;17.30;51.90
15394;DHT22;7795;47.986;11.868;2023-02-22T15:23:54;17.30;52.00
15394;DHT22;7795;47.986;11.868;2023-02-22T15:26:24;17.30;52.00
15394;DHT22;7795;47.986;11.868;2023-02-22T15:28:53;17.30;51.90
15394;DHT22;7795;47.986;11.868;2023-02-22T15:31:28;17.30;52.10
15394;DHT22;7795;47.986;11.868;2023-02-22T15:33:54;17.30;51.90
15394;DHT22;7795;47.986;11.868;2023-02-22T15:36:25;17.30;52.10
15394;DHT22;7795;47.986;11.868;2023-02-22T15:38:53;17.30;52.10
15394;DHT22;7795;47.986;11.868;2023-02-22T15:41:28;17.30;52.40
15394;DHT22;7795;47.986;11.868;2023-02-22T15:44:02;17.30;52.40
15394;DHT22;7795;47.986;11.868;2023-02-22T15:46:30;17.20;52.50
15394;DHT22;7795;47.986;11.868;2023-02-22T15:49:19;17.20;52.60
15394;DHT22;7795;47.986;11.868;2023-02-22T15:51:46;17.20;52.50
15394;DHT22;7795;47.986;11.868;2023-02-22T15:54:16;17.10;53.40
15394;DHT22;7795;47.986;11.868;2023-02-22T15:56:47;17.10;52.80
15394;DHT22;7795;47.986;11.868;2023-02-22T15:59:16;17.00;52.90
15394;DHT22;7795;47.986;11.868;2023-02-22T16:01:46;17.00;53.00
15394;DHT22;7795;47.986;11.868;2023-02-22T16:04:16;16.90;53.00
15394;DHT22;7795;47.986;11.868;2023-02-22T16:06:42;16.90;53.10